createdAt,value
2022-11-14T00:02:09.167Z,11.68
2022-11-14T00:04:56.043Z,10.52
2022-11-14T00:07:42.561Z,10.70
2022-11-14T00:10:28.786Z,11.48
2022-11-14T00:13:15.324Z,11.80
2022-11-14T00:16:03.931Z,12.90
2022-11-14T00:18:51.533Z,11.27
2022-11-14T00:21:39.762Z,11.48
2022-11-14T00:24:25.680Z,12.70
2022-11-14T00:27:12.692Z,12.02
2022-11-14T00:30:01.565Z,12.15
2022-11-14T00:32:47.501Z,12.35
2022-11-14T00:35:33.808Z,12.45
2022-11-14T00:38:19.720Z,11.55
2022-11-14T00:41:06.336Z,12.90
2022-11-14T00:43:52.900Z,12.38
2022-11-14T00:46:42.858Z,13.73
2022-11-14T00:49:31.629Z,13.82
2022-11-14T00:52:17.508Z,13.25
2022-11-14T00:55:03.680Z,13.05
2022-11-14T00:57:51.051Z,13.73
2022-11-14T01:03:43.389Z,13.70
2022-11-14T01:06:30.371Z,14.10
2022-11-14T01:09:18.293Z,14.98
2022-11-14T01:12:05.206Z,14.27
2022-11-14T01:14:51.215Z,15.10
2022-11-14T01:17:39.153Z,15.07
2022-11-14T01:20:25.512Z,15.63
2022-11-14T01:23:15.624Z,15.82
2022-11-14T01:28:49.674Z,15.50
2022-11-14T01:31:40.779Z,16.48
2022-11-14T01:34:27.298Z,17.33
2022-11-14T01:37:13.917Z,15.98
2022-11-14T01:40:05.628Z,18.35
2022-11-14T01:43:32.315Z,16.58
2022-11-14T01:46:24.085Z,18.70
2022-11-14T01:49:10.139Z,17.63
2022-11-14T01:52:03.234Z,18.17
2022-11-14T01:54:52.145Z,17.23
2022-11-14T01:57:46.616Z,17.55
2022-11-14T02:00:33.655Z,18.20
2022-11-14T02:03:21.090Z,17.25
2022-11-14T02:06:08.345Z,18.17
2022-11-14T02:08:54.771Z,18.92
2022-11-14T02:11:45.333Z,17.65
2022-11-14T02:14:34.625Z,18.60
2022-11-14T02:17:30.155Z,18.00
2022-11-14T02:20:28.897Z,17.58
2022-11-14T02:23:26.100Z,18.08
2022-11-14T02:26:12.086Z,17.83
2022-11-14T02:29:00.685Z,18.23
2022-11-14T02:31:47.563Z,18.35
2022-11-14T02:34:34.711Z,19.60
2022-11-14T02:37:21.046Z,19.02
2022-11-14T02:40:08.156Z,19.20
2022-11-14T02:42:54.703Z,19.08
2022-11-14T02:45:41.070Z,17.25
2022-11-14T02:48:28.765Z,18.23
2022-11-14T02:51:18.367Z,18.70
2022-11-14T02:54:05.418Z,18.77
2022-11-14T02:56:52.496Z,17.40
2022-11-14T02:59:39.138Z,19.02
2022-11-14T03:02:26.637Z,19.05
2022-11-14T03:05:12.867Z,19.27
2022-11-14T03:08:01.789Z,19.25
2022-11-14T03:10:47.793Z,18.15
2022-11-14T03:13:34.228Z,19.25
2022-11-14T03:16:20.347Z,20.20
2022-11-14T03:19:06.563Z,19.65
2022-11-14T03:21:53.190Z,19.38
2022-11-14T03:24:40.001Z,19.77
2022-11-14T03:27:27.352Z,20.25
2022-11-14T03:30:13.892Z,20.20
2022-11-14T03:33:00.623Z,20.48
2022-11-14T03:35:47.304Z,19.98
2022-11-14T03:38:34.419Z,21.33
2022-11-14T03:41:21.337Z,19.77
2022-11-14T03:44:08.034Z,21.05
2022-11-14T03:46:54.322Z,22.45
2022-11-14T03:49:41.413Z,21.50
2022-11-14T03:52:27.927Z,20.67
2022-11-14T03:55:14.386Z,20.90
2022-11-14T03:58:02.334Z,20.35
2022-11-14T04:00:49.083Z,21.13
2022-11-14T04:03:47.877Z,21.27
2022-11-14T04:06:34.033Z,21.30
2022-11-14T04:09:21.356Z,21.45
2022-11-14T04:12:12.698Z,21.10
2022-11-14T04:15:04.148Z,21.27
2022-11-14T04:17:50.755Z,21.90
2022-11-14T04:20:38.771Z,21.38
2022-11-14T04:23:24.797Z,21.35
2022-11-14T04:26:11.782Z,20.23
2022-11-14T04:28:57.757Z,20.15
2022-11-14T04:31:44.053Z,22.08
2022-11-14T04:34:30.866Z,20.52
2022-11-14T04:37:16.965Z,21.40
2022-11-14T04:40:03.740Z,20.67
2022-11-14T04:42:50.435Z,20.83
2022-11-14T04:45:36.835Z,20.83
2022-11-14T04:48:23.624Z,20.17
2022-11-14T04:51:09.856Z,20.80
2022-11-14T04:53:56.285Z,21.23
2022-11-14T04:56:43.343Z,20.60
2022-11-14T04:59:30.663Z,21.08
2022-11-14T05:02:17.110Z,21.17
2022-11-14T05:05:03.421Z,21.50
2022-11-14T05:07:49.929Z,21.25
2022-11-14T05:10:36.347Z,20.45
2022-11-14T05:13:22.262Z,21.38
2022-11-14T05:16:08.295Z,21.60
2022-11-14T05:18:55.311Z,20.10
2022-11-14T05:21:45.169Z,21.27
2022-11-14T05:24:32.446Z,21.13
2022-11-14T05:27:19.470Z,19.90
2022-11-14T05:30:05.890Z,21.48
2022-11-14T05:32:55.080Z,21.60
2022-11-14T05:35:41.614Z,19.45
2022-11-14T05:38:28.875Z,20.33
2022-11-14T05:41:17.291Z,20.48
2022-11-14T05:44:05.467Z,20.92
2022-11-14T05:46:51.651Z,20.88
2022-11-14T05:49:38.156Z,21.10
2022-11-14T05:52:24.174Z,21.45
2022-11-14T05:55:11.160Z,20.77
2022-11-14T05:58:01.525Z,21.13
2022-11-14T06:00:53.446Z,19.63
2022-11-14T06:03:42.836Z,21.38
2022-11-14T06:06:30.328Z,20.05
2022-11-14T06:09:18.134Z,20.83
2022-11-14T06:12:08.078Z,20.17
2022-11-14T06:14:54.212Z,20.17
2022-11-14T06:17:40.497Z,19.38
2022-11-14T06:20:26.769Z,19.65
2022-11-14T06:23:12.900Z,19.42
2022-11-14T06:26:08.154Z,18.75
2022-11-14T06:28:56.416Z,18.90
2022-11-14T06:31:45.003Z,18.70
2022-11-14T06:34:32.850Z,18.85
2022-11-14T06:37:19.695Z,18.92
2022-11-14T06:40:06.612Z,18.20
2022-11-14T06:42:58.436Z,17.35
2022-11-14T06:45:45.041Z,18.55
2022-11-14T06:48:32.511Z,19.10
2022-11-14T06:51:19.437Z,18.25
2022-11-14T06:54:05.990Z,19.40
2022-11-14T06:56:52.535Z,18.58
2022-11-14T06:59:38.625Z,18.25
2022-11-14T07:02:25.060Z,17.75
2022-11-14T07:05:11.102Z,18.08
2022-11-14T07:07:58.429Z,17.77
2022-11-14T07:10:46.058Z,16.27
2022-11-14T07:13:33.309Z,17.40
2022-11-14T07:16:20.429Z,17.60
2022-11-14T07:19:13.049Z,17.30
2022-11-14T07:22:01.785Z,18.40
2022-11-14T07:24:48.823Z,17.63
2022-11-14T07:27:35.706Z,17.25
2022-11-14T07:30:22.482Z,15.82
2022-11-14T07:33:08.844Z,17.13
2022-11-14T07:35:55.835Z,17.02
2022-11-14T07:38:42.200Z,17.98
2022-11-14T07:41:38.346Z,16.80
2022-11-14T07:44:24.296Z,16.60
2022-11-14T07:47:14.174Z,17.10
2022-11-14T07:50:03.601Z,16.60
2022-11-14T07:52:57.702Z,16.08
2022-11-14T07:55:44.724Z,16.95
2022-11-14T07:58:38.203Z,17.00
2022-11-14T08:01:24.224Z,16.48
2022-11-14T08:04:13.080Z,15.88
2022-11-14T08:07:01.762Z,15.65
2022-11-14T08:09:54.556Z,15.52
2022-11-14T08:12:42.865Z,14.88
2022-11-14T08:15:31.776Z,14.30
2022-11-14T08:18:18.762Z,14.93
2022-11-14T08:21:06.185Z,13.35
2022-11-14T08:23:52.552Z,13.93
2022-11-14T08:30:02.891Z,14.32
2022-11-14T08:32:49.369Z,15.35
2022-11-14T08:35:36.091Z,15.68
2022-11-14T08:38:22.969Z,15.05
2022-11-14T08:41:08.741Z,15.82
2022-11-14T08:43:58.760Z,16.08
2022-11-14T08:46:45.465Z,15.40
2022-11-14T08:49:34.811Z,15.27
2022-11-14T08:52:22.097Z,14.98
2022-11-14T08:55:08.473Z,15.25
2022-11-14T08:57:55.106Z,15.43
2022-11-14T09:00:41.264Z,14.40
2022-11-14T09:03:27.887Z,14.00
2022-11-14T09:06:14.114Z,13.80
2022-11-14T09:09:04.125Z,13.95
2022-11-14T09:11:51.085Z,14.07
2022-11-14T09:14:37.680Z,12.63
2022-11-14T09:17:23.755Z,13.68
2022-11-14T09:20:10.461Z,12.93
2022-11-14T09:23:01.854Z,13.38
2022-11-14T09:25:48.133Z,12.40
2022-11-14T09:28:34.780Z,12.95
2022-11-14T09:31:21.927Z,13.02
2022-11-14T09:34:08.223Z,13.18
2022-11-14T09:36:54.461Z,13.43
2022-11-14T09:39:40.925Z,13.48
2022-11-14T09:42:30.343Z,13.70
2022-11-14T09:45:17.598Z,14.10
2022-11-14T09:48:10.783Z,12.93
2022-11-14T09:51:08.966Z,13.15
2022-11-14T09:54:27.567Z,14.30
2022-11-14T09:57:18.664Z,14.02
2022-11-14T10:02:56.580Z,13.68
2022-11-14T10:05:51.636Z,14.85
2022-11-14T10:09:02.138Z,14.63
2022-11-14T10:11:52.648Z,14.35
2022-11-14T10:14:57.926Z,14.70
2022-11-14T10:17:47.212Z,15.25
2022-11-14T10:20:49.163Z,14.85
2022-11-14T10:23:47.869Z,15.38
2022-11-14T10:26:37.689Z,16.15
2022-11-14T10:29:39.652Z,15.33
2022-11-14T10:32:26.046Z,15.23
2022-11-14T10:35:15.558Z,15.35
2022-11-14T10:38:03.210Z,16.90
2022-11-14T10:40:58.260Z,17.30
2022-11-14T10:43:47.285Z,17.52
2022-11-14T10:46:34.994Z,17.90
2022-11-14T10:49:24.900Z,17.45
2022-11-14T10:52:14.262Z,18.50
2022-11-14T10:55:18.043Z,18.42
2022-11-14T10:58:09.510Z,17.70
2022-11-14T11:00:55.934Z,18.60
2022-11-14T11:03:42.952Z,17.45
2022-11-14T11:06:30.294Z,18.65
2022-11-14T11:09:42.168Z,18.52
2022-11-14T11:15:41.488Z,19.52
2022-11-14T11:18:30.640Z,19.10
2022-11-14T11:21:18.886Z,20.30
2022-11-14T11:24:05.452Z,21.20
2022-11-14T11:27:11.562Z,21.23
2022-11-14T11:30:17.949Z,23.15
2022-11-14T11:33:24.253Z,23.38
2022-11-14T11:36:16.136Z,21.10
2022-11-14T11:39:13.064Z,21.95
2022-11-14T11:42:10.619Z,21.02
2022-11-14T11:45:03.663Z,20.98
2022-11-14T11:48:22.803Z,21.00
2022-11-14T11:51:23.166Z,21.83
2022-11-14T11:54:18.181Z,21.20
2022-11-14T11:57:09.450Z,22.08
2022-11-14T12:00:01.551Z,22.17
2022-11-14T12:02:50.512Z,21.88
2022-11-14T12:05:56.900Z,21.92
2022-11-14T12:09:12.732Z,22.15
2022-11-14T12:12:04.093Z,23.90
2022-11-14T12:15:10.137Z,23.65
2022-11-14T12:18:05.331Z,24.30
2022-11-14T12:21:04.370Z,24.80
2022-11-14T12:23:57.004Z,23.27
2022-11-14T12:26:43.172Z,23.50
2022-11-14T12:29:32.425Z,23.63
2022-11-14T12:32:20.637Z,23.42
2022-11-14T12:35:08.364Z,24.08
2022-11-14T12:37:56.324Z,24.25
2022-11-14T12:40:44.099Z,24.33
2022-11-14T12:43:36.109Z,23.63
2022-11-14T12:46:23.303Z,24.08
2022-11-14T12:49:34.225Z,23.35
2022-11-14T12:52:45.607Z,24.13
2022-11-14T12:55:36.043Z,24.35
2022-11-14T12:58:33.657Z,24.60
2022-11-14T13:01:26.569Z,23.88
2022-11-14T13:04:32.534Z,24.45
2022-11-14T13:07:34.507Z,24.58
2022-11-14T13:10:50.897Z,24.73
2022-11-14T13:14:15.931Z,24.10
2022-11-14T13:17:34.865Z,25.02
2022-11-14T13:20:55.036Z,24.15
2022-11-14T13:23:44.386Z,25.13
2022-11-14T13:26:32.229Z,26.00
2022-11-14T13:29:39.708Z,25.80
2022-11-14T13:32:41.447Z,25.70
2022-11-14T13:35:35.384Z,24.80
2022-11-14T13:38:21.479Z,25.65
2022-11-14T13:41:23.894Z,24.75
2022-11-14T13:44:19.581Z,26.40
2022-11-14T13:47:12.904Z,26.90
2022-11-14T13:50:08.489Z,24.15
2022-11-14T13:52:55.178Z,24.38
2022-11-14T13:55:41.122Z,23.67
2022-11-14T13:58:39.921Z,24.08
2022-11-14T14:01:26.375Z,26.83
2022-11-14T14:04:33.711Z,25.55
2022-11-14T14:07:20.133Z,25.13
2022-11-14T14:10:09.281Z,25.85
2022-11-14T14:12:56.586Z,25.88
2022-11-14T14:16:02.228Z,25.70
2022-11-14T14:19:07.267Z,23.85
2022-11-14T14:22:06.032Z,25.02
2022-11-14T14:25:02.350Z,25.52
2022-11-14T14:28:08.678Z,26.52
2022-11-14T14:31:23.730Z,25.40
2022-11-14T14:34:23.892Z,23.95
2022-11-14T14:37:20.858Z,26.88
2022-11-14T14:40:11.781Z,25.10
2022-11-14T14:42:58.096Z,25.17
2022-11-14T14:45:52.243Z,24.52
2022-11-14T14:48:41.290Z,24.55
2022-11-14T14:51:36.573Z,24.00
2022-11-14T14:54:26.641Z,26.77
2022-11-14T14:57:53.595Z,25.73
2022-11-14T15:00:39.912Z,26.38
2022-11-14T15:03:26.973Z,26.52
2022-11-14T15:06:30.226Z,26.33
2022-11-14T15:09:23.934Z,25.33
2022-11-14T15:12:10.660Z,24.77
2022-11-14T15:14:57.260Z,26.13
2022-11-14T15:17:43.777Z,25.75
2022-11-14T15:20:32.518Z,24.92
2022-11-14T15:23:20.139Z,23.75
2022-11-14T15:26:12.354Z,24.45
2022-11-14T15:29:08.950Z,24.15
2022-11-14T15:32:01.529Z,23.73
2022-11-14T15:35:25.976Z,23.60
2022-11-14T15:38:54.225Z,23.33
2022-11-14T15:41:42.553Z,22.98
2022-11-14T15:44:36.575Z,22.20
2022-11-14T15:47:33.072Z,22.67
2022-11-14T15:50:20.040Z,20.77
2022-11-14T15:53:26.802Z,20.48
2022-11-14T15:56:14.112Z,19.92
2022-11-14T15:59:58.366Z,20.13
2022-11-14T16:02:50.718Z,20.02
2022-11-14T16:05:43.027Z,18.45
2022-11-14T16:08:34.378Z,19.45
2022-11-14T16:11:20.723Z,18.33
2022-11-14T16:14:11.027Z,19.08
2022-11-14T16:16:58.443Z,18.25
2022-11-14T16:19:53.804Z,19.50
2022-11-14T16:22:43.787Z,18.92
2022-11-14T16:25:31.589Z,19.00
2022-11-14T16:28:18.094Z,18.90
2022-11-14T16:31:04.797Z,19.00
2022-11-14T16:33:51.644Z,18.08
2022-11-14T16:36:38.319Z,18.02
2022-11-14T16:39:25.020Z,19.08
2022-11-14T16:42:11.970Z,19.27
2022-11-14T16:45:02.308Z,19.17
2022-11-14T16:47:49.253Z,18.42
2022-11-14T16:50:38.497Z,18.75
2022-11-14T16:53:24.582Z,18.90
2022-11-14T16:56:12.969Z,19.35
2022-11-14T16:58:59.209Z,18.60
2022-11-14T17:01:48.499Z,19.83
2022-11-14T17:04:34.746Z,19.90
2022-11-14T17:07:22.982Z,19.88
2022-11-14T17:10:09.711Z,19.85
2022-11-14T17:12:56.522Z,18.70
2022-11-14T17:15:43.032Z,18.42
2022-11-14T17:18:35.484Z,18.95
2022-11-14T17:21:24.535Z,18.85
2022-11-14T17:24:11.134Z,19.20
2022-11-14T17:26:57.521Z,18.60
2022-11-14T17:29:44.223Z,18.80
2022-11-14T17:32:31.660Z,18.45
2022-11-14T17:35:18.072Z,20.20
2022-11-14T17:38:04.851Z,19.45
2022-11-14T17:41:07.899Z,19.67
2022-11-14T17:44:01.966Z,20.20
2022-11-14T17:46:49.710Z,18.83
2022-11-14T17:49:35.966Z,18.27
2022-11-14T17:52:22.558Z,19.10
2022-11-14T17:55:09.147Z,18.67
2022-11-14T17:57:58.749Z,19.67
2022-11-14T18:00:45.302Z,18.67
2022-11-14T18:03:32.730Z,19.30
2022-11-14T18:06:20.010Z,18.95
2022-11-14T18:09:14.075Z,18.90
2022-11-14T18:12:01.618Z,19.52
2022-11-14T18:14:48.239Z,17.90
2022-11-14T18:17:34.814Z,18.73
2022-11-14T18:20:21.636Z,18.58
2022-11-14T18:23:07.977Z,17.85
2022-11-14T18:25:54.280Z,18.75
2022-11-14T18:28:40.353Z,18.48
2022-11-14T18:31:26.807Z,17.73
2022-11-14T18:34:12.878Z,17.42
2022-11-14T18:37:02.112Z,18.48
2022-11-14T18:39:48.157Z,17.58
2022-11-14T18:42:34.392Z,18.08
2022-11-14T18:45:21.382Z,18.23
2022-11-14T18:48:07.593Z,16.52
2022-11-14T18:50:57.527Z,17.58
2022-11-14T18:53:46.135Z,18.35
2022-11-14T18:56:33.136Z,18.00
2022-11-14T18:59:19.754Z,17.08
2022-11-14T19:02:06.379Z,16.98
2022-11-14T19:04:53.395Z,16.92
2022-11-14T19:07:39.786Z,16.95
2022-11-14T19:10:25.754Z,16.88
2022-11-14T19:13:12.093Z,16.63
2022-11-14T19:16:05.201Z,16.42
2022-11-14T19:18:51.258Z,16.65
2022-11-14T19:21:37.987Z,17.55
2022-11-14T19:24:24.057Z,17.90
2022-11-14T19:27:13.594Z,16.73
2022-11-14T19:30:03.280Z,17.77
2022-11-14T19:32:49.498Z,17.85
2022-11-14T19:35:39.538Z,18.33
2022-11-14T19:38:25.883Z,17.20
2022-11-14T19:41:16.123Z,18.80
2022-11-14T19:44:02.968Z,18.52
2022-11-14T19:46:49.355Z,16.98
2022-11-14T19:49:35.663Z,17.58
2022-11-14T19:52:22.112Z,17.60
2022-11-14T19:55:08.227Z,18.48
2022-11-14T19:57:54.489Z,16.80
2022-11-14T20:00:40.834Z,16.20
2022-11-14T20:03:28.184Z,17.42
2022-11-14T20:06:28.442Z,15.32
2022-11-14T20:09:17.712Z,16.43
2022-11-14T20:12:06.360Z,17.30
2022-11-14T20:14:55.590Z,17.83
2022-11-14T20:17:41.963Z,17.17
2022-11-14T20:20:28.373Z,16.77
2022-11-14T20:23:14.563Z,16.75
2022-11-14T20:26:05.891Z,16.02
2022-11-14T20:28:55.053Z,15.57
2022-11-14T20:31:41.854Z,15.85
2022-11-14T20:34:28.527Z,16.85
2022-11-14T20:37:15.599Z,16.00
2022-11-14T20:40:36.109Z,17.42
2022-11-14T20:46:12.504Z,17.25
2022-11-14T20:49:01.052Z,17.35
2022-11-14T20:51:49.863Z,18.10
2022-11-14T20:54:36.895Z,17.83
2022-11-14T20:57:23.092Z,16.42
2022-11-14T21:00:10.013Z,18.10
2022-11-14T21:02:56.371Z,16.77
2022-11-14T21:05:45.163Z,18.92
2022-11-14T21:08:34.365Z,17.45
2022-11-14T21:11:22.571Z,17.13
2022-11-14T21:14:09.279Z,18.35
2022-11-14T21:16:55.241Z,18.25
2022-11-14T21:19:41.265Z,16.50
2022-11-14T21:22:27.462Z,17.23
2022-11-14T21:25:19.070Z,16.63
2022-11-14T21:28:05.299Z,18.08
2022-11-14T21:30:51.663Z,17.88
2022-11-14T21:33:38.523Z,18.02
2022-11-14T21:39:33.278Z,18.33
2022-11-14T21:42:19.263Z,18.35
2022-11-14T21:45:07.889Z,17.80
2022-11-14T21:47:54.103Z,16.55
2022-11-14T21:50:40.399Z,17.50
2022-11-14T21:53:28.558Z,15.88
2022-11-14T21:56:18.967Z,16.23
2022-11-14T21:59:14.625Z,17.63
2022-11-14T22:02:21.889Z,16.25
2022-11-14T22:05:08.626Z,16.20
2022-11-14T22:07:55.006Z,16.20
2022-11-14T22:10:41.623Z,16.95
2022-11-14T22:13:32.546Z,17.20
2022-11-14T22:16:19.734Z,17.25
2022-11-14T22:19:07.036Z,15.90
2022-11-14T22:21:54.297Z,16.60
2022-11-14T22:24:40.676Z,17.65
2022-11-14T22:27:27.139Z,17.63
2022-11-14T22:30:15.326Z,19.17
2022-11-14T22:33:10.757Z,17.95
2022-11-14T22:36:02.915Z,18.85
2022-11-14T22:38:49.704Z,19.25
2022-11-14T22:41:38.016Z,20.10
2022-11-14T22:44:24.658Z,20.65
2022-11-14T22:47:12.171Z,20.08
2022-11-14T22:49:59.996Z,22.05
2022-11-14T22:52:46.757Z,20.60
2022-11-14T22:55:33.889Z,21.10
2022-11-14T22:58:19.845Z,20.90
2022-11-14T23:01:19.419Z,21.98
2022-11-14T23:04:06.168Z,20.30
2022-11-14T23:06:53.500Z,21.02
2022-11-14T23:09:39.653Z,22.33
2022-11-14T23:12:25.640Z,19.58
2022-11-14T23:15:12.166Z,20.90
2022-11-14T23:18:05.092Z,21.08
2022-11-14T23:20:51.217Z,21.08
2022-11-14T23:23:37.840Z,20.40
2022-11-14T23:26:24.596Z,21.77
2022-11-14T23:29:14.283Z,21.27
2022-11-14T23:32:01.792Z,19.77
2022-11-14T23:34:48.275Z,20.55
2022-11-14T23:37:34.310Z,20.55
2022-11-14T23:40:20.631Z,20.67
2022-11-14T23:43:06.659Z,19.75
2022-11-14T23:45:53.061Z,21.65
2022-11-14T23:48:38.873Z,20.77
2022-11-14T23:51:25.513Z,20.52
2022-11-14T23:54:11.510Z,20.13
2022-11-14T23:57:02.871Z,19.95
2022-11-14T23:59:50.240Z,20.55
